createdAt,value
2022-10-20T00:00:23.476Z,100823.28
2022-10-20T00:02:53.209Z,100820.03
2022-10-20T00:05:23.739Z,100827.28
2022-10-20T00:07:53.419Z,100828.06
2022-10-20T00:10:23.263Z,100831.31
2022-10-20T00:12:52.881Z,100832.53
2022-10-20T00:15:24.869Z,100838.19
2022-10-20T00:17:54.763Z,100836.97
2022-10-20T00:20:27.107Z,100834.16
2022-10-20T00:22:57.826Z,100831.31
2022-10-20T00:25:29.040Z,100825.66
2022-10-20T00:27:59.760Z,100832.94
2022-10-20T00:30:32.858Z,100835.34
2022-10-20T00:33:03.283Z,100825.22
2022-10-20T00:35:34.140Z,100823.59
2022-10-20T00:38:04.402Z,100821.16
2022-10-20T00:40:34.123Z,100818.75
2022-10-20T00:43:04.550Z,100819.13
2022-10-20T00:45:36.829Z,100820.31
2022-10-20T00:48:16.890Z,100814.66
2022-10-20T00:50:53.544Z,100811.44
2022-10-20T00:53:26.862Z,100809.41
2022-10-20T00:56:00.398Z,100809.81
2022-10-20T00:58:31.926Z,100813.00
2022-10-20T01:01:03.836Z,100811.00
2022-10-20T01:03:46.208Z,100818.22
2022-10-20T01:06:22.427Z,100814.97
2022-10-20T01:08:55.270Z,100808.47
2022-10-20T01:11:39.206Z,100812.50
2022-10-20T01:14:29.285Z,100824.66
2022-10-20T01:17:15.763Z,100821.38
2022-10-20T01:20:29.746Z,100825.41
2022-10-20T01:23:47.065Z,100834.31
2022-10-20T01:26:48.324Z,100820.16
2022-10-20T01:29:31.111Z,100823.78
2022-10-20T01:32:15.028Z,100831.09
2022-10-20T01:34:58.714Z,100821.38
2022-10-20T01:37:48.777Z,100829.06
2022-10-20T01:40:32.201Z,100822.19
2022-10-20T01:43:07.200Z,100822.59
2022-10-20T01:45:43.788Z,100823.38
2022-10-20T01:48:19.174Z,100820.56
2022-10-20T01:50:52.186Z,100821.38
2022-10-20T01:53:23.723Z,100825.84
2022-10-20T01:55:57.576Z,100825.84
2022-10-20T01:59:22.096Z,100820.97
2022-10-20T02:02:29.569Z,100828.66
2022-10-20T02:05:20.963Z,100819.31
2022-10-20T02:07:51.680Z,100828.56
2022-10-20T02:10:26.847Z,100825.38
2022-10-20T02:13:03.985Z,100831.03
2022-10-20T02:15:38.702Z,100828.56
2022-10-20T02:18:15.164Z,100825.75
2022-10-20T02:20:49.922Z,100815.25
2022-10-20T02:23:20.523Z,100817.69
2022-10-20T02:26:03.150Z,100824.56
2022-10-20T02:28:36.228Z,100833.06
2022-10-20T02:31:07.839Z,100828.22
2022-10-20T02:33:41.936Z,100816.50
2022-10-20T02:36:19.598Z,100829.47
2022-10-20T02:38:49.975Z,100826.63
2022-10-20T02:41:20.350Z,100829.88
2022-10-20T02:43:50.574Z,100827.47
2022-10-20T02:46:20.310Z,100831.09
2022-10-20T02:48:52.507Z,100831.09
2022-10-20T02:51:22.504Z,100840.78
2022-10-20T02:53:55.210Z,100838.34
2022-10-20T02:56:27.616Z,100836.28
2022-10-20T02:59:00.475Z,100841.94
2022-10-20T03:01:30.782Z,100833.78
2022-10-20T03:04:02.697Z,100835.41
2022-10-20T03:06:32.947Z,100838.19
2022-10-20T03:09:03.047Z,100830.09
2022-10-20T03:11:34.329Z,100834.16
2022-10-20T03:14:04.560Z,100839.44
2022-10-20T03:16:34.299Z,100839.84
2022-10-20T03:19:09.127Z,100849.16
2022-10-20T03:21:41.735Z,100846.31
2022-10-20T03:24:12.153Z,100849.16
2022-10-20T03:26:42.235Z,100851.97
2022-10-20T03:29:12.342Z,100846.31
2022-10-20T03:31:42.640Z,100849.56
2022-10-20T03:34:15.052Z,100852.41
2022-10-20T03:36:45.404Z,100854.41
2022-10-20T03:39:15.778Z,100853.56
2022-10-20T03:41:45.687Z,100861.25
2022-10-20T03:44:15.709Z,100860.00
2022-10-20T03:46:45.363Z,100864.47
2022-10-20T03:49:17.677Z,100854.41
2022-10-20T03:51:47.914Z,100868.56
2022-10-20T03:54:18.170Z,100861.66
2022-10-20T03:56:48.079Z,100868.16
2022-10-20T03:59:17.814Z,100875.47
2022-10-20T04:01:49.324Z,100877.88
2022-10-20T04:04:21.376Z,100877.47
2022-10-20T04:06:51.674Z,100880.28
2022-10-20T04:09:21.875Z,100888.38
2022-10-20T04:11:52.236Z,100884.72
2022-10-20T04:14:22.400Z,100891.16
2022-10-20T04:16:52.786Z,100893.59
2022-10-20T04:19:24.367Z,100898.03
2022-10-20T04:21:54.470Z,100902.44
2022-10-20T04:24:24.728Z,100905.66
2022-10-20T04:26:54.382Z,100896.75
2022-10-20T04:29:24.499Z,100904.44
2022-10-20T04:31:54.840Z,100899.97
2022-10-20T04:34:27.199Z,100911.72
2022-10-20T04:36:57.499Z,100903.66
2022-10-20T04:39:27.304Z,100915.03
2022-10-20T04:41:57.832Z,100916.28
2022-10-20T04:44:27.973Z,100921.22
2022-10-20T04:46:58.575Z,100915.59
2022-10-20T04:49:30.250Z,100917.72
2022-10-20T04:52:01.322Z,100921.06
2022-10-20T04:54:31.501Z,100921.53
2022-10-20T04:57:02.144Z,100922.41
2022-10-20T04:59:32.640Z,100925.28
2022-10-20T05:02:02.883Z,100931.44
2022-10-20T05:04:35.214Z,100929.91
2022-10-20T05:07:04.967Z,100932.41
2022-10-20T05:09:36.982Z,100930.88
2022-10-20T05:12:07.642Z,100937.41
2022-10-20T05:14:38.005Z,100940.31
2022-10-20T05:17:09.344Z,100944.41
2022-10-20T05:19:42.046Z,100941.25
2022-10-20T05:22:11.851Z,100944.13
2022-10-20T05:24:43.257Z,100949.44
2022-10-20T05:27:13.523Z,100952.72
2022-10-20T05:29:43.297Z,100951.13
2022-10-20T05:32:14.529Z,100956.00
2022-10-20T05:34:46.389Z,100950.41
2022-10-20T05:37:16.038Z,100956.94
2022-10-20T05:42:21.290Z,100963.44
2022-10-20T05:44:51.599Z,100967.53
2022-10-20T05:47:21.773Z,100967.16
2022-10-20T05:49:53.574Z,100966.34
2022-10-20T05:52:23.933Z,100971.63
2022-10-20T05:54:54.040Z,100976.91
2022-10-20T05:57:24.534Z,100977.28
2022-10-20T05:59:54.902Z,100976.09
2022-10-20T06:02:25.197Z,100967.16
2022-10-20T06:04:56.765Z,100972.41
2022-10-20T06:07:26.462Z,100971.56
2022-10-20T06:09:56.402Z,100974.78
2022-10-20T06:12:29.426Z,100978.84
2022-10-20T06:14:59.831Z,100980.84
2022-10-20T06:17:29.738Z,100979.97
2022-10-20T06:20:02.201Z,100978.31
2022-10-20T06:22:32.481Z,100981.94
2022-10-20T06:25:02.656Z,100983.09
2022-10-20T06:27:32.978Z,100981.88
2022-10-20T06:30:03.303Z,100989.97
2022-10-20T06:32:33.725Z,100981.78
2022-10-20T06:35:06.455Z,100989.03
2022-10-20T06:37:36.970Z,100977.56
2022-10-20T06:40:07.710Z,100984.00
2022-10-20T06:42:37.953Z,100983.59
2022-10-20T06:45:12.225Z,100979.00
2022-10-20T06:47:44.904Z,100976.47
2022-10-20T06:50:16.509Z,100979.69
2022-10-20T06:52:46.587Z,100975.53
2022-10-20T06:55:16.791Z,100980.75
2022-10-20T06:57:47.244Z,100984.81
2022-10-20T07:00:18.316Z,100988.75
2022-10-20T07:02:48.532Z,100984.22
2022-10-20T07:05:22.370Z,100980.84
2022-10-20T07:07:55.945Z,100977.50
2022-10-20T07:10:25.972Z,100983.13
2022-10-20T07:12:55.652Z,100985.13
2022-10-20T07:15:25.326Z,100981.78
2022-10-20T07:17:56.387Z,100978.81
2022-10-20T07:20:29.382Z,100974.69
2022-10-20T07:22:59.653Z,100974.28
2022-10-20T07:25:29.757Z,100970.63
2022-10-20T07:27:59.742Z,100979.56
2022-10-20T07:30:30.099Z,100972.94
2022-10-20T07:33:00.744Z,100974.47
2022-10-20T07:35:33.007Z,100982.50
2022-10-20T07:38:03.012Z,100975.50
2022-10-20T07:40:33.926Z,100974.13
2022-10-20T07:43:04.281Z,100969.53
2022-10-20T07:45:34.739Z,100970.69
2022-10-20T07:48:07.455Z,100966.16
2022-10-20T07:50:40.707Z,100965.28
2022-10-20T07:53:11.133Z,100967.28
2022-10-20T07:55:41.897Z,100969.28
2022-10-20T07:58:11.901Z,100970.00
2022-10-20T08:00:41.692Z,100960.19
2022-10-20T08:03:12.879Z,100959.25
2022-10-20T08:05:44.787Z,100950.19
2022-10-20T08:08:15.187Z,100950.19
2022-10-20T08:10:45.699Z,100951.81
2022-10-20T08:13:15.516Z,100941.53
2022-10-20T08:15:48.492Z,100943.53
2022-10-20T08:18:19.097Z,100942.25
2022-10-20T08:20:51.464Z,100943.78
2022-10-20T08:23:22.293Z,100938.44
2022-10-20T08:25:58.030Z,100944.09
2022-10-20T08:28:27.884Z,100936.69
2022-10-20T08:30:57.951Z,100937.88
2022-10-20T08:33:28.203Z,100940.66
2022-10-20T08:36:05.541Z,100932.44
2022-10-20T08:38:36.643Z,100937.75
2022-10-20T08:41:17.181Z,100925.91
2022-10-20T08:43:50.334Z,100925.91
2022-10-20T08:46:25.792Z,100929.56
2022-10-20T08:48:55.871Z,100930.00
2022-10-20T08:51:37.674Z,100923.06
2022-10-20T08:54:15.433Z,100919.00
2022-10-20T08:56:46.781Z,100915.41
2022-10-20T08:59:31.501Z,100920.38
2022-10-20T09:02:02.618Z,100910.78
2022-10-20T09:04:39.854Z,100913.31
2022-10-20T09:07:27.649Z,100902.81
2022-10-20T09:10:09.358Z,100896.31
2022-10-20T09:12:44.188Z,100899.69
2022-10-20T09:15:16.635Z,100907.88
2022-10-20T09:17:53.706Z,100903.84
2022-10-20T09:20:30.120Z,100911.66
2022-10-20T09:23:07.839Z,100905.19
2022-10-20T09:25:48.049Z,100903.63
2022-10-20T09:28:27.161Z,100896.72
2022-10-20T09:30:59.345Z,100898.00
2022-10-20T09:33:34.175Z,100891.94
2022-10-20T09:36:21.475Z,100890.72
2022-10-20T09:38:55.278Z,100880.19
2022-10-20T09:41:31.158Z,100884.69
2022-10-20T09:44:04.529Z,100881.47
2022-10-20T09:46:49.094Z,100878.25
2022-10-20T09:49:31.385Z,100874.19
2022-10-20T09:52:05.344Z,100878.34
2022-10-20T09:54:37.782Z,100872.69
2022-10-20T09:57:10.980Z,100877.25
2022-10-20T09:59:48.683Z,100872.38
2022-10-20T10:02:33.478Z,100871.63
2022-10-20T10:05:21.666Z,100873.72
2022-10-20T10:08:03.220Z,100876.25
2022-10-20T10:10:35.950Z,100865.31
2022-10-20T10:15:43.154Z,100877.66
2022-10-20T10:18:24.008Z,100864.22
2022-10-20T10:21:04.536Z,100865.06
2022-10-20T10:23:41.468Z,100870.84
2022-10-20T10:26:48.580Z,100867.25
2022-10-20T10:29:27.763Z,100866.84
2022-10-20T10:32:03.731Z,100867.69
2022-10-20T10:34:53.043Z,100866.06
2022-10-20T10:37:23.498Z,100864.47
2022-10-20T10:39:53.570Z,100860.44
2022-10-20T10:43:08.240Z,100864.97
2022-10-20T10:45:53.950Z,100864.19
2022-10-20T10:49:20.857Z,100848.34
2022-10-20T10:52:08.548Z,100855.34
2022-10-20T10:54:59.344Z,100846.00
2022-10-20T10:57:39.697Z,100857.06
2022-10-20T11:00:22.698Z,100860.31
2022-10-20T11:03:16.740Z,100849.41
2022-10-20T11:06:11.340Z,100860.84
2022-10-20T11:09:14.281Z,100857.22
2022-10-20T11:12:23.279Z,100858.88
2022-10-20T11:15:15.548Z,100854.00
2022-10-20T11:18:05.685Z,100853.25
2022-10-20T11:20:46.644Z,100853.25
2022-10-20T11:24:08.645Z,100846.38
2022-10-20T11:26:42.028Z,100852.91
2022-10-20T11:29:19.773Z,100850.97
2022-10-20T11:32:01.696Z,100843.34
2022-10-20T11:34:40.749Z,100850.31
2022-10-20T11:37:24.193Z,100856.03
2022-10-20T11:40:08.761Z,100848.34
2022-10-20T11:42:51.291Z,100851.59
2022-10-20T11:45:46.889Z,100850.41
2022-10-20T11:48:28.467Z,100840.66
2022-10-20T11:51:42.798Z,100850.41
2022-10-20T11:55:00.698Z,100854.13
2022-10-20T11:57:59.050Z,100858.69
2022-10-20T12:01:12.630Z,100856.25
2022-10-20T12:04:26.691Z,100855.09
2022-10-20T12:07:54.130Z,100842.94
2022-10-20T12:10:42.140Z,100837.28
2022-10-20T12:13:34.612Z,100829.97
2022-10-20T12:16:05.486Z,100833.66
2022-10-20T12:18:40.182Z,100837.28
2022-10-20T12:21:13.090Z,100843.00
2022-10-20T12:24:08.171Z,100834.44
2022-10-20T12:27:12.185Z,100825.88
2022-10-20T12:30:04.315Z,100832.38
2022-10-20T12:33:11.250Z,100820.22
2022-10-20T12:36:19.260Z,100819.84
2022-10-20T12:38:53.546Z,100832.50
2022-10-20T12:41:35.399Z,100828.84
2022-10-20T12:44:09.779Z,100817.84
2022-10-20T12:46:45.583Z,100815.81
2022-10-20T12:49:30.958Z,100810.13
2022-10-20T12:52:03.354Z,100817.06
2022-10-20T12:54:41.865Z,100819.91
2022-10-20T12:57:38.976Z,100810.97
2022-10-20T13:00:33.514Z,100813.81
2022-10-20T13:03:04.196Z,100815.47
2022-10-20T13:06:02.938Z,100809.38
2022-10-20T13:08:37.646Z,100813.44
2022-10-20T13:11:44.916Z,100812.25
2022-10-20T13:15:08.125Z,100817.97
2022-10-20T13:17:56.750Z,100817.63
2022-10-20T13:20:42.780Z,100809.88
2022-10-20T13:23:16.197Z,100805.44
2022-10-20T13:25:51.039Z,100809.53
2022-10-20T13:28:26.899Z,100804.63
2022-10-20T13:31:23.803Z,100787.97
2022-10-20T13:34:06.613Z,100798.13
2022-10-20T13:37:00.236Z,100788.75
2022-10-20T13:39:48.591Z,100798.13
2022-10-20T13:42:38.984Z,100789.63
2022-10-20T13:45:27.419Z,100788.78
2022-10-20T13:48:22.338Z,100794.50
2022-10-20T13:50:58.735Z,100795.72
2022-10-20T13:53:36.161Z,100786.81
2022-10-20T13:56:11.202Z,100784.78
2022-10-20T13:58:41.814Z,100801.06
2022-10-20T14:01:24.746Z,100801.09
2022-10-20T14:03:57.859Z,100794.19
2022-10-20T14:06:37.734Z,100797.88
2022-10-20T14:09:22.356Z,100784.88
2022-10-20T14:11:56.885Z,100782.00
2022-10-20T14:14:30.293Z,100782.84
2022-10-20T14:17:04.674Z,100779.56
2022-10-20T14:19:37.498Z,100781.19
2022-10-20T14:22:23.593Z,100788.09
2022-10-20T14:24:59.936Z,100799.50
2022-10-20T14:27:34.037Z,100796.25
2022-10-20T14:30:07.742Z,100808.88
2022-10-20T14:32:42.805Z,100805.25
2022-10-20T14:35:27.258Z,100802.81
2022-10-20T14:38:04.353Z,100795.91
2022-10-20T14:40:37.746Z,100792.69
2022-10-20T14:43:16.679Z,100795.13
2022-10-20T14:45:56.349Z,100786.22
2022-10-20T14:48:31.200Z,100788.66
2022-10-20T14:51:04.350Z,100796.78
2022-10-20T14:53:36.465Z,100813.06
2022-10-20T14:56:26.187Z,100812.66
2022-10-20T14:59:05.128Z,100810.22
2022-10-20T15:01:35.555Z,100813.47
2022-10-20T15:04:25.642Z,100820.38
2022-10-20T15:07:16.736Z,100830.97
2022-10-20T15:09:50.989Z,100828.50
2022-10-20T15:12:25.922Z,100832.97
2022-10-20T15:15:10.857Z,100821.59
2022-10-20T15:17:45.861Z,100812.69
2022-10-20T15:20:39.282Z,100828.13
2022-10-20T15:23:14.295Z,100821.63
2022-10-20T15:25:51.532Z,100825.31
2022-10-20T15:28:37.855Z,100822.47
2022-10-20T15:31:23.090Z,100842.78
2022-10-20T15:33:54.037Z,100852.53
2022-10-20T15:36:29.295Z,100858.22
2022-10-20T15:39:02.602Z,100854.16
2022-10-20T15:41:35.758Z,100854.19
2022-10-20T15:44:16.416Z,100858.66
2022-10-20T15:46:47.633Z,100854.97
2022-10-20T15:49:18.391Z,100862.69
2022-10-20T15:51:50.933Z,100870.84
2022-10-20T15:54:24.914Z,100883.03
2022-10-20T15:56:54.866Z,100885.09
2022-10-20T15:59:24.774Z,100893.59
2022-10-20T16:01:55.122Z,100910.28
2022-10-20T16:04:35.887Z,100929.78
2022-10-20T16:07:06.347Z,100935.06
2022-10-20T16:09:38.126Z,100949.28
2022-10-20T16:12:08.820Z,100950.06
2022-10-20T16:14:39.166Z,100965.91
2022-10-20T16:17:09.285Z,100946.00
2022-10-20T16:19:39.740Z,100949.69
2022-10-20T16:22:09.628Z,100964.69
2022-10-20T16:24:41.526Z,100956.59
2022-10-20T16:27:12.276Z,100951.72
2022-10-20T16:29:45.147Z,100930.19
2022-10-20T16:32:17.512Z,100926.97
2022-10-20T16:34:47.397Z,100943.59
2022-10-20T16:37:17.413Z,100946.84
2022-10-20T16:40:02.721Z,100937.50
2022-10-20T16:42:33.626Z,100927.78
2022-10-20T16:45:03.575Z,100919.25
2022-10-20T16:47:34.473Z,100908.25
2022-10-20T16:50:05.174Z,100913.94
2022-10-20T16:52:35.612Z,100924.91
2022-10-20T16:55:08.769Z,100927.75
2022-10-20T16:57:40.501Z,100932.63
2022-10-20T17:00:12.820Z,100933.44
2022-10-20T17:02:45.259Z,100941.16
2022-10-20T17:05:15.700Z,100944.41
2022-10-20T17:07:45.287Z,100948.06
2022-10-20T17:10:18.732Z,100947.25
2022-10-20T17:15:21.139Z,100949.69
2022-10-20T17:17:51.017Z,100948.88
2022-10-20T17:20:21.422Z,100964.31
2022-10-20T17:22:51.467Z,100966.75
2022-10-20T17:25:22.586Z,100974.47
2022-10-20T17:27:53.093Z,100980.56
2022-10-20T17:30:23.467Z,100974.06
2022-10-20T17:32:53.917Z,100967.56
2022-10-20T17:35:24.471Z,100969.19
2022-10-20T17:37:54.792Z,100963.50
2022-10-20T17:40:26.721Z,100957.81
2022-10-20T17:42:57.138Z,100951.31
2022-10-20T17:45:27.669Z,100957.00
2022-10-20T17:47:59.003Z,100951.31
2022-10-20T17:50:29.569Z,100939.53
2022-10-20T17:53:02.799Z,100935.50
2022-10-20T17:55:36.625Z,100938.72
2022-10-20T17:58:06.667Z,100928.97
2022-10-20T18:00:55.395Z,100926.97
2022-10-20T18:03:27.184Z,100920.47
2022-10-20T18:05:57.084Z,100893.66
2022-10-20T18:08:36.578Z,100877.44
2022-10-20T18:11:11.313Z,100881.88
2022-10-20T18:13:41.637Z,100879.84
2022-10-20T18:16:14.353Z,100891.22
2022-10-20T18:18:45.257Z,100892.03
2022-10-20T18:21:17.508Z,100897.72
2022-10-20T18:23:48.909Z,100889.19
2022-10-20T18:26:22.681Z,100896.09
2022-10-20T18:28:54.799Z,100892.44
2022-10-20T18:31:27.730Z,100899.34
2022-10-20T18:34:04.188Z,100882.28
2022-10-20T18:36:41.867Z,100840.88
2022-10-20T18:39:15.702Z,100835.19
2022-10-20T18:41:47.731Z,100840.06
2022-10-20T18:44:20.908Z,100839.66
2022-10-20T18:46:51.790Z,100825.06
2022-10-20T18:49:22.331Z,100834.41
2022-10-20T18:51:52.483Z,100848.16
2022-10-20T18:54:24.283Z,100842.50
2022-10-20T18:56:56.629Z,100856.69
2022-10-20T18:59:26.699Z,100850.59
2022-10-20T19:01:57.039Z,100862.38
2022-10-20T19:04:27.513Z,100872.13
2022-10-20T19:06:57.846Z,100883.50
2022-10-20T19:09:27.796Z,100888.34
2022-10-20T19:12:01.555Z,100880.25
2022-10-20T19:14:32.746Z,100883.09
2022-10-20T19:17:03.334Z,100885.09
2022-10-20T19:19:35.032Z,100888.78
2022-10-20T19:22:06.064Z,100891.63
2022-10-20T19:24:40.146Z,100901.75
2022-10-20T19:27:26.104Z,100905.81
2022-10-20T19:29:57.837Z,100905.81
2022-10-20T19:32:27.950Z,100898.09
2022-10-20T19:34:58.487Z,100900.16
2022-10-20T19:37:29.039Z,100911.50
2022-10-20T19:39:58.963Z,100917.19
2022-10-20T19:42:30.980Z,100924.09
2022-10-20T19:45:00.853Z,100922.06
2022-10-20T19:47:31.157Z,100912.31
2022-10-20T19:50:00.971Z,100911.47
2022-10-20T19:52:31.624Z,100913.94
2022-10-20T19:55:01.822Z,100905.41
2022-10-20T19:57:33.570Z,100911.91
2022-10-20T20:00:03.997Z,100915.53
2022-10-20T20:02:35.593Z,100910.28
2022-10-20T20:05:06.607Z,100917.59
2022-10-20T20:07:37.304Z,100909.03
2022-10-20T20:10:10.554Z,100909.88
2022-10-20T20:12:42.693Z,100905.41
2022-10-20T20:15:12.943Z,100900.13
2022-10-20T20:17:44.340Z,100887.16
2022-10-20T20:20:14.992Z,100869.28
2022-10-20T20:22:45.039Z,100867.66
2022-10-20T20:25:15.687Z,100876.16
2022-10-20T20:27:47.883Z,100873.31
2022-10-20T20:30:18.564Z,100870.91
2022-10-20T20:32:52.115Z,100890.78
2022-10-20T20:35:24.506Z,100899.31
2022-10-20T20:37:55.152Z,100920.00
2022-10-20T20:40:25.554Z,100915.13
2022-10-20T20:42:57.985Z,100923.22
2022-10-20T20:45:28.386Z,100922.03
2022-10-20T20:47:58.320Z,100931.75
2022-10-20T20:50:28.691Z,100926.50
2022-10-20T20:52:58.586Z,100937.44
2022-10-20T20:55:28.987Z,100952.03
2022-10-20T20:58:01.504Z,100951.22
2022-10-20T21:00:31.931Z,100953.69
2022-10-20T21:03:02.278Z,100956.50
2022-10-20T21:05:32.779Z,100960.97
2022-10-20T21:08:03.018Z,100971.94
2022-10-20T21:10:33.370Z,100960.97
2022-10-20T21:13:06.036Z,100943.94
2022-10-20T21:15:36.505Z,100928.53
2022-10-20T21:18:06.895Z,100928.53
2022-10-20T21:20:37.267Z,100889.97
2022-10-20T21:23:07.566Z,100874.16
2022-10-20T21:25:37.448Z,100854.28
2022-10-20T21:28:09.951Z,100805.59
2022-10-20T21:30:43.441Z,100753.66
2022-10-20T21:33:13.808Z,100752.84
2022-10-20T21:35:43.721Z,100861.97
2022-10-20T21:38:13.474Z,100872.53
2022-10-20T21:40:43.689Z,100856.28
2022-10-20T21:43:16.013Z,100864.81
2022-10-20T21:45:46.375Z,100861.16
2022-10-20T21:48:16.757Z,100868.06
2022-10-20T21:50:46.763Z,100867.22
2022-10-20T21:53:16.854Z,100882.25
2022-10-20T21:55:47.136Z,100892.78
2022-10-20T21:58:21.414Z,100908.63
2022-10-20T22:00:54.228Z,100907.00
2022-10-20T22:03:24.754Z,100911.00
2022-10-20T22:05:55.113Z,100910.22
2022-10-20T22:08:25.551Z,100912.63
2022-10-20T22:10:55.855Z,100910.22
2022-10-20T22:13:28.072Z,100907.38
2022-10-20T22:15:57.850Z,100902.91
2022-10-20T22:18:28.382Z,100901.69
2022-10-20T22:20:58.878Z,100879.34
2022-10-20T22:23:28.808Z,100855.00
2022-10-20T22:25:59.351Z,100845.28
2022-10-20T22:28:31.769Z,100837.59
2022-10-20T22:33:32.560Z,100762.16
2022-10-20T22:36:02.958Z,100750.78
2022-10-20T22:38:33.481Z,100761.34
2022-10-20T22:41:04.537Z,100789.75
2022-10-20T22:43:36.402Z,100811.22
2022-10-20T22:46:07.939Z,100833.53
2022-10-20T22:48:39.094Z,100841.22
2022-10-20T22:51:11.282Z,100839.22
2022-10-20T22:53:42.061Z,100835.97
2022-10-20T22:56:15.202Z,100835.97
2022-10-20T22:58:48.674Z,100822.19
2022-10-20T23:01:22.032Z,100810.84
2022-10-20T23:03:52.508Z,100814.47
2022-10-20T23:06:26.346Z,100809.19
2022-10-20T23:08:58.204Z,100799.47
2022-10-20T23:11:28.846Z,100788.13
2022-10-20T23:14:01.610Z,100792.97
2022-10-20T23:16:31.620Z,100791.75
2022-10-20T23:19:02.074Z,100781.59
2022-10-20T23:21:32.640Z,100780.41
2022-10-20T23:24:03.099Z,100787.28
2022-10-20T23:26:33.553Z,100783.66
2022-10-20T23:29:05.917Z,100792.59
2022-10-20T23:31:36.320Z,100787.28
2022-10-20T23:34:06.093Z,100789.34
2022-10-20T23:36:39.014Z,100785.66
2022-10-20T23:39:09.535Z,100781.63
2022-10-20T23:41:39.863Z,100780.41
2022-10-20T23:44:12.463Z,100780.78
2022-10-20T23:46:42.222Z,100788.09
2022-10-20T23:49:12.786Z,100794.19
2022-10-20T23:51:42.563Z,100813.66
2022-10-20T23:54:13.055Z,100835.56
2022-10-20T23:56:43.401Z,100843.25
2022-10-20T23:59:16.176Z,100841.63
